createdAt,value
2023-01-04T00:01:39.893Z,1.59
2023-01-04T00:04:09.652Z,1.50
2023-01-04T00:06:36.828Z,1.43
2023-01-04T00:09:05.319Z,1.39
2023-01-04T00:11:33.731Z,1.35
2023-01-04T00:14:02.101Z,1.32
2023-01-04T00:16:30.788Z,1.32
2023-01-04T00:18:59.040Z,1.32
2023-01-04T00:21:31.305Z,1.29
2023-01-04T00:24:01.993Z,1.29
2023-01-04T00:26:35.185Z,1.43
2023-01-04T00:29:09.962Z,1.45
2023-01-04T00:31:41.057Z,1.49
2023-01-04T00:34:16.827Z,1.49
2023-01-04T00:36:48.026Z,1.44
2023-01-04T00:39:18.484Z,1.44
2023-01-04T00:41:59.310Z,1.42
2023-01-04T00:44:32.516Z,1.53
2023-01-04T00:47:04.386Z,1.55
2023-01-04T00:49:34.557Z,1.58
2023-01-04T00:52:04.802Z,1.57
2023-01-04T00:54:34.831Z,1.68
2023-01-04T00:57:05.514Z,1.61
2023-01-04T00:59:33.329Z,1.60
2023-01-04T01:02:01.793Z,1.70
2023-01-04T01:04:30.279Z,1.67
2023-01-04T01:06:58.592Z,1.73
2023-01-04T01:09:27.207Z,1.70
2023-01-04T01:11:55.605Z,1.76
2023-01-04T01:14:26.352Z,1.85
2023-01-04T01:16:57.670Z,1.70
2023-01-04T01:19:30.293Z,1.68
2023-01-04T01:22:00.554Z,1.60
2023-01-04T01:24:30.585Z,1.62
2023-01-04T01:27:00.609Z,1.54
2023-01-04T01:29:30.821Z,1.59
2023-01-04T01:32:00.912Z,1.63
2023-01-04T01:34:31.153Z,1.59
2023-01-04T01:37:02.792Z,1.68
2023-01-04T01:39:32.789Z,1.75
2023-01-04T01:42:02.874Z,1.62
2023-01-04T01:44:42.026Z,1.63
2023-01-04T01:47:28.233Z,1.59
2023-01-04T01:49:58.401Z,1.65
2023-01-04T01:52:38.996Z,1.59
2023-01-04T01:55:13.175Z,1.49
2023-01-04T01:57:50.641Z,1.52
2023-01-04T02:00:21.062Z,1.44
2023-01-04T02:03:27.195Z,1.31
2023-01-04T02:06:04.104Z,1.33
2023-01-04T02:08:33.092Z,1.26
2023-01-04T02:11:01.173Z,1.26
2023-01-04T02:13:54.967Z,1.32
2023-01-04T02:16:59.833Z,1.41
2023-01-04T02:20:10.458Z,1.34
2023-01-04T02:23:00.779Z,1.32
2023-01-04T02:26:17.660Z,1.54
2023-01-04T02:29:05.281Z,1.73
2023-01-04T02:32:05.873Z,1.65
2023-01-04T02:35:21.883Z,1.61
2023-01-04T02:39:00.343Z,1.68
2023-01-04T02:41:39.456Z,1.78
2023-01-04T02:44:54.644Z,1.91
2023-01-04T02:48:01.684Z,1.86
2023-01-04T02:51:00.056Z,1.89
2023-01-04T02:53:40.198Z,1.96
2023-01-04T02:56:38.570Z,2.03
2023-01-04T02:59:40.996Z,1.76
2023-01-04T03:03:05.186Z,1.71
2023-01-04T03:06:16.035Z,1.87
2023-01-04T03:09:19.323Z,1.97
2023-01-04T03:12:23.141Z,1.91
2023-01-04T03:15:28.512Z,1.92
2023-01-04T03:18:16.548Z,1.78
2023-01-04T03:20:52.500Z,1.83
2023-01-04T03:23:50.706Z,1.75
2023-01-04T03:26:52.358Z,1.63
2023-01-04T03:29:55.451Z,1.77
2023-01-04T03:33:18.213Z,1.86
2023-01-04T03:36:20.156Z,1.84
2023-01-04T03:39:50.839Z,1.61
2023-01-04T03:43:22.484Z,1.76
2023-01-04T03:46:28.178Z,1.86
2023-01-04T03:49:29.981Z,1.90
2023-01-04T03:52:07.828Z,1.99
2023-01-04T03:54:46.950Z,1.83
2023-01-04T03:57:18.892Z,1.84
2023-01-04T04:00:11.869Z,1.83
2023-01-04T04:02:46.417Z,1.81
2023-01-04T04:05:43.079Z,1.85
2023-01-04T04:08:31.494Z,1.70
2023-01-04T04:11:22.599Z,1.58
2023-01-04T04:13:51.473Z,1.66
2023-01-04T04:16:19.198Z,1.62
2023-01-04T04:18:48.613Z,1.60
2023-01-04T04:21:15.977Z,1.71
2023-01-04T04:23:44.683Z,1.82
2023-01-04T04:26:12.928Z,1.83
2023-01-04T04:28:42.678Z,2.01
2023-01-04T04:31:13.896Z,1.89
2023-01-04T04:33:41.100Z,2.01
2023-01-04T04:36:10.513Z,2.03
2023-01-04T04:38:38.219Z,2.03
2023-01-04T04:41:32.234Z,2.16
2023-01-04T04:44:02.498Z,2.05
2023-01-04T04:46:32.591Z,2.12
2023-01-04T04:49:04.107Z,2.37
2023-01-04T04:51:35.128Z,2.39
2023-01-04T04:54:07.958Z,2.27
2023-01-04T04:56:37.946Z,2.45
2023-01-04T04:59:06.239Z,2.48
2023-01-04T05:01:34.930Z,2.43
2023-01-04T05:04:05.399Z,2.59
2023-01-04T05:06:33.644Z,2.73
2023-01-04T05:09:01.706Z,2.85
2023-01-04T05:11:48.675Z,2.81
2023-01-04T05:14:18.705Z,2.75
2023-01-04T05:16:48.759Z,2.75
2023-01-04T05:19:19.062Z,2.79
2023-01-04T05:21:49.061Z,2.70
2023-01-04T05:24:19.099Z,2.80
2023-01-04T05:26:49.164Z,2.90
2023-01-04T05:29:37.893Z,2.95
2023-01-04T05:32:08.016Z,3.19
2023-01-04T05:34:38.123Z,3.25
2023-01-04T05:37:08.172Z,3.29
2023-01-04T05:39:38.213Z,3.22
2023-01-04T05:42:26.762Z,3.32
2023-01-04T05:44:59.819Z,3.25
2023-01-04T05:47:30.204Z,3.18
2023-01-04T05:50:00.847Z,3.44
2023-01-04T05:52:31.385Z,3.30
2023-01-04T05:55:01.805Z,3.36
2023-01-04T05:57:31.913Z,3.38
2023-01-04T06:00:02.794Z,3.26
2023-01-04T06:02:33.496Z,3.21
2023-01-04T06:05:05.281Z,3.43
2023-01-04T06:07:35.297Z,3.54
2023-01-04T06:10:04.190Z,3.44
2023-01-04T06:12:32.222Z,3.37
2023-01-04T06:15:00.728Z,3.25
2023-01-04T06:17:29.384Z,3.41
2023-01-04T06:19:58.001Z,3.39
2023-01-04T06:22:29.202Z,3.56
2023-01-04T06:24:58.209Z,3.55
2023-01-04T06:27:26.861Z,3.50
2023-01-04T06:29:55.172Z,3.42
2023-01-04T06:32:23.554Z,3.48
2023-01-04T06:34:52.015Z,3.58
2023-01-04T06:37:20.395Z,3.67
2023-01-04T06:39:48.875Z,3.63
2023-01-04T06:42:36.066Z,3.74
2023-01-04T06:45:07.024Z,3.76
2023-01-04T06:47:37.126Z,4.00
2023-01-04T06:50:08.026Z,4.09
2023-01-04T06:52:38.097Z,4.12
2023-01-04T06:55:11.630Z,4.11
2023-01-04T06:57:41.683Z,4.24
2023-01-04T07:00:11.435Z,4.28
2023-01-04T07:02:39.135Z,4.32
2023-01-04T07:05:27.222Z,4.49
2023-01-04T07:07:55.460Z,4.56
2023-01-04T07:10:23.813Z,4.58
2023-01-04T07:12:52.356Z,4.63
2023-01-04T07:15:37.344Z,4.75
2023-01-04T07:18:11.518Z,4.77
2023-01-04T07:20:41.541Z,4.84
2023-01-04T07:23:11.666Z,4.83
2023-01-04T07:25:41.703Z,4.78
2023-01-04T07:28:11.815Z,4.86
2023-01-04T07:30:41.881Z,4.84
2023-01-04T07:33:11.917Z,4.75
2023-01-04T07:35:41.889Z,4.68
2023-01-04T07:38:11.918Z,4.73
2023-01-04T07:40:56.468Z,4.59
2023-01-04T07:43:28.535Z,4.81
2023-01-04T07:45:59.038Z,4.71
2023-01-04T07:48:29.721Z,4.61
2023-01-04T07:50:59.861Z,4.55
2023-01-04T07:53:29.881Z,4.62
2023-01-04T07:56:01.131Z,4.55
2023-01-04T07:58:35.575Z,4.58
2023-01-04T08:01:19.636Z,4.53
2023-01-04T08:03:48.214Z,4.46
2023-01-04T08:06:19.027Z,4.63
2023-01-04T08:08:48.363Z,4.61
2023-01-04T08:11:22.565Z,4.63
2023-01-04T08:13:50.043Z,4.56
2023-01-04T08:16:23.555Z,4.70
2023-01-04T08:19:02.579Z,4.59
2023-01-04T08:21:36.509Z,4.78
2023-01-04T08:24:08.027Z,4.72
2023-01-04T08:26:38.223Z,4.83
2023-01-04T08:29:08.506Z,4.76
2023-01-04T08:31:36.808Z,4.72
2023-01-04T08:34:09.776Z,4.81
2023-01-04T08:36:53.460Z,4.71
2023-01-04T08:39:21.895Z,4.86
2023-01-04T08:44:41.085Z,4.88
2023-01-04T08:47:11.055Z,4.87
2023-01-04T08:49:40.967Z,4.84
2023-01-04T08:52:11.849Z,4.87
2023-01-04T08:54:42.435Z,4.97
2023-01-04T08:57:11.651Z,4.86
2023-01-04T08:59:41.596Z,4.91
2023-01-04T09:02:26.595Z,4.84
2023-01-04T09:05:00.165Z,4.86
2023-01-04T09:07:32.632Z,4.81
2023-01-04T09:10:02.279Z,4.91
2023-01-04T09:12:31.935Z,5.05
2023-01-04T09:15:03.012Z,5.00
2023-01-04T09:17:31.720Z,4.92
2023-01-04T09:20:01.538Z,5.04
2023-01-04T09:22:32.146Z,4.94
2023-01-04T09:25:02.913Z,4.93
2023-01-04T09:27:34.011Z,4.88
2023-01-04T09:30:04.553Z,5.05
2023-01-04T09:32:32.694Z,5.14
2023-01-04T09:35:02.598Z,5.11
2023-01-04T09:37:32.359Z,5.12
2023-01-04T09:40:02.283Z,5.16
2023-01-04T09:42:44.900Z,5.12
2023-01-04T09:45:26.729Z,5.04
2023-01-04T09:48:21.454Z,5.06
2023-01-04T09:51:06.313Z,5.09
2023-01-04T09:54:16.815Z,5.08
2023-01-04T09:56:59.364Z,5.28
2023-01-04T09:59:34.728Z,5.23
2023-01-04T10:02:23.757Z,5.29
2023-01-04T10:04:54.299Z,5.27
2023-01-04T10:07:34.893Z,5.36
2023-01-04T10:10:13.211Z,5.46
2023-01-04T10:13:13.490Z,5.47
2023-01-04T10:16:36.574Z,5.56
2023-01-04T10:23:11.179Z,5.27
2023-01-04T10:26:11.778Z,5.30
2023-01-04T10:29:09.297Z,5.35
2023-01-04T10:31:56.120Z,5.30
2023-01-04T10:34:40.386Z,5.29
2023-01-04T10:37:34.969Z,5.45
2023-01-04T10:40:17.479Z,5.50
2023-01-04T10:43:07.256Z,5.45
2023-01-04T10:46:15.406Z,5.59
2023-01-04T10:49:41.855Z,5.59
2023-01-04T10:52:38.280Z,5.46
2023-01-04T10:55:27.664Z,5.32
2023-01-04T10:58:17.655Z,5.34
2023-01-04T11:01:10.514Z,5.42
2023-01-04T11:09:05.247Z,5.62
2023-01-04T11:11:46.193Z,5.60
2023-01-04T11:14:16.188Z,5.59
2023-01-04T11:16:51.779Z,5.77
2023-01-04T11:19:22.490Z,5.79
2023-01-04T11:22:09.360Z,5.80
2023-01-04T11:25:07.818Z,5.82
2023-01-04T11:28:00.128Z,5.84
2023-01-04T11:30:52.205Z,6.02
2023-01-04T11:33:25.566Z,6.06
2023-01-04T11:35:59.393Z,6.02
2023-01-04T11:38:31.178Z,6.24
2023-01-04T11:41:18.120Z,6.22
2023-01-04T11:44:01.312Z,6.33
2023-01-04T11:46:34.831Z,6.26
2023-01-04T11:49:05.858Z,6.22
2023-01-04T11:51:40.907Z,6.37
2023-01-04T11:54:20.996Z,6.41
2023-01-04T11:57:18.906Z,6.32
2023-01-04T12:00:16.209Z,6.26
2023-01-04T12:03:02.543Z,6.23
2023-01-04T12:05:32.876Z,6.26
2023-01-04T12:08:00.263Z,6.28
2023-01-04T12:10:29.456Z,6.29
2023-01-04T12:13:02.422Z,6.34
2023-01-04T12:16:10.815Z,6.37
2023-01-04T12:18:45.104Z,6.44
2023-01-04T12:21:25.667Z,6.45
2023-01-04T12:23:56.605Z,6.58
2023-01-04T12:26:27.393Z,6.60
2023-01-04T12:29:24.944Z,6.46
2023-01-04T12:32:17.609Z,6.47
2023-01-04T12:34:48.724Z,6.58
2023-01-04T12:37:46.216Z,6.49
2023-01-04T12:40:45.118Z,6.61
2023-01-04T12:43:16.325Z,6.48
2023-01-04T12:46:08.388Z,6.48
2023-01-04T12:48:57.272Z,6.45
2023-01-04T12:51:33.017Z,6.42
2023-01-04T12:54:06.174Z,6.43
2023-01-04T12:57:17.747Z,6.36
2023-01-04T13:00:13.931Z,6.25
2023-01-04T13:03:15.015Z,6.38
2023-01-04T13:06:06.098Z,6.41
2023-01-04T13:08:45.613Z,6.27
2023-01-04T13:12:14.911Z,6.22
2023-01-04T13:14:57.883Z,6.26
2023-01-04T13:17:28.996Z,6.29
2023-01-04T13:19:59.390Z,6.36
2023-01-04T13:22:34.019Z,6.31
2023-01-04T13:25:14.785Z,6.31
2023-01-04T13:28:05.373Z,6.29
2023-01-04T13:30:39.640Z,6.35
2023-01-04T13:33:27.281Z,6.40
2023-01-04T13:36:12.212Z,6.42
2023-01-04T13:38:45.584Z,6.45
2023-01-04T13:41:32.108Z,6.42
2023-01-04T13:48:06.375Z,6.59
2023-01-04T13:50:47.443Z,6.53
2023-01-04T13:53:31.100Z,6.52
2023-01-04T13:56:04.717Z,6.59
2023-01-04T13:58:35.523Z,6.64
2023-01-04T14:01:31.784Z,6.61
2023-01-04T14:04:13.450Z,6.68
2023-01-04T14:06:55.220Z,6.67
2023-01-04T14:09:43.426Z,6.62
2023-01-04T14:12:27.270Z,6.59
2023-01-04T14:15:17.270Z,6.58
2023-01-04T14:17:53.932Z,6.51
2023-01-04T14:20:25.175Z,6.57
2023-01-04T14:22:58.949Z,6.65
2023-01-04T14:25:38.451Z,6.64
2023-01-04T14:28:41.631Z,6.56
2023-01-04T14:31:25.310Z,6.67
2023-01-04T14:33:56.737Z,6.67
2023-01-04T14:36:33.051Z,6.80
2023-01-04T14:39:09.666Z,6.78
2023-01-04T14:41:54.939Z,6.76
2023-01-04T14:44:30.991Z,6.68
2023-01-04T14:47:06.297Z,6.78
2023-01-04T14:49:36.569Z,6.77
2023-01-04T14:52:23.835Z,6.81
2023-01-04T14:54:53.904Z,6.70
2023-01-04T14:57:24.101Z,6.76
2023-01-04T14:59:54.094Z,6.82
2023-01-04T15:02:26.957Z,6.88
2023-01-04T15:04:57.329Z,6.85
2023-01-04T15:07:40.558Z,6.86
2023-01-04T15:10:28.690Z,6.97
2023-01-04T15:13:00.823Z,6.86
2023-01-04T15:15:35.629Z,6.96
2023-01-04T15:18:05.977Z,7.03
2023-01-04T15:20:40.989Z,7.07
2023-01-04T15:23:11.429Z,7.09
2023-01-04T15:25:42.162Z,7.00
2023-01-04T15:28:10.072Z,7.02
2023-01-04T15:30:43.752Z,7.13
2023-01-04T15:33:13.977Z,7.17
2023-01-04T15:35:44.061Z,7.10
2023-01-04T15:38:18.396Z,7.11
2023-01-04T15:40:50.232Z,7.25
2023-01-04T15:43:20.412Z,7.37
2023-01-04T15:45:50.435Z,7.29
2023-01-04T15:48:20.676Z,7.27
2023-01-04T15:50:50.792Z,7.30
2023-01-04T15:53:20.928Z,7.26
2023-01-04T15:55:52.491Z,7.30
2023-01-04T15:58:22.576Z,7.31
2023-01-04T16:00:59.653Z,7.45
2023-01-04T16:03:36.350Z,7.34
2023-01-04T16:06:16.647Z,7.29
2023-01-04T16:08:47.223Z,7.32
2023-01-04T16:11:23.605Z,7.45
2023-01-04T16:13:54.271Z,7.42
2023-01-04T16:16:29.719Z,7.46
2023-01-04T16:18:59.839Z,7.58
2023-01-04T16:21:29.562Z,7.64
2023-01-04T16:24:09.180Z,7.67
2023-01-04T16:26:43.177Z,7.66
2023-01-04T16:29:13.337Z,7.60
2023-01-04T16:31:45.445Z,7.59
2023-01-04T16:34:15.874Z,7.62
2023-01-04T16:36:45.932Z,7.58
2023-01-04T16:39:17.022Z,7.65
2023-01-04T16:41:47.283Z,7.60
2023-01-04T16:44:17.350Z,7.71
2023-01-04T16:46:47.474Z,7.75
2023-01-04T16:49:18.470Z,7.75
2023-01-04T16:51:49.169Z,7.75
2023-01-04T16:54:19.625Z,7.88
2023-01-04T16:56:50.209Z,7.86
2023-01-04T16:59:21.379Z,7.92
2023-01-04T17:01:57.352Z,7.87
2023-01-04T17:04:28.220Z,7.88
2023-01-04T17:06:58.510Z,8.04
2023-01-04T17:09:28.505Z,7.94
2023-01-04T17:15:14.990Z,8.03
2023-01-04T17:17:39.752Z,8.08
2023-01-04T17:20:08.957Z,8.11
2023-01-04T17:22:36.683Z,8.31
2023-01-04T17:25:05.804Z,8.15
2023-01-04T17:27:35.547Z,7.99
2023-01-04T17:30:06.691Z,7.94
2023-01-04T17:32:36.881Z,8.07
2023-01-04T17:35:07.344Z,8.04
2023-01-04T17:37:37.452Z,8.00
2023-01-04T17:40:08.219Z,8.09
2023-01-04T17:42:38.213Z,8.17
2023-01-04T17:45:08.914Z,8.10
2023-01-04T17:47:38.998Z,8.27
2023-01-04T17:50:09.536Z,8.16
2023-01-04T17:52:39.594Z,8.08
2023-01-04T17:55:10.439Z,8.15
2023-01-04T18:00:15.361Z,8.26
2023-01-04T18:02:45.480Z,8.46
2023-01-04T18:05:13.892Z,8.50
2023-01-04T18:07:42.409Z,8.46
2023-01-04T18:10:20.589Z,8.43
2023-01-04T18:12:51.281Z,8.43
2023-01-04T18:15:21.227Z,8.51
2023-01-04T18:17:51.041Z,8.49
2023-01-04T18:20:24.891Z,8.47
2023-01-04T18:22:55.421Z,8.40
2023-01-04T18:25:25.496Z,8.36
2023-01-04T18:27:53.840Z,8.32
2023-01-04T18:30:22.064Z,8.43
2023-01-04T18:32:50.661Z,8.44
2023-01-04T18:35:18.872Z,8.52
2023-01-04T18:37:47.417Z,8.47
2023-01-04T18:40:15.858Z,8.46
2023-01-04T18:42:51.423Z,8.41
2023-01-04T18:45:21.490Z,8.41
2023-01-04T18:47:52.250Z,8.52
2023-01-04T18:50:22.401Z,8.46
2023-01-04T18:52:52.029Z,8.52
2023-01-04T18:55:21.957Z,8.63
2023-01-04T18:57:51.743Z,8.43
2023-01-04T19:00:23.035Z,8.58
2023-01-04T19:02:53.132Z,8.48
2023-01-04T19:05:24.514Z,8.36
2023-01-04T19:07:55.440Z,8.32
2023-01-04T19:10:25.547Z,8.57
2023-01-04T19:12:55.311Z,8.49
2023-01-04T19:15:25.822Z,8.36
2023-01-04T19:17:57.172Z,8.40
2023-01-04T19:20:27.379Z,8.35
2023-01-04T19:22:57.187Z,8.47
2023-01-04T19:25:28.618Z,8.46
2023-01-04T19:27:58.798Z,8.49
2023-01-04T19:30:29.116Z,8.59
2023-01-04T19:32:59.199Z,8.61
2023-01-04T19:35:29.015Z,8.63
2023-01-04T19:37:59.345Z,8.80
2023-01-04T19:40:29.462Z,8.61
2023-01-04T19:42:59.281Z,8.56
2023-01-04T19:45:29.051Z,8.66
2023-01-04T19:48:00.528Z,8.75
2023-01-04T19:50:30.284Z,8.79
2023-01-04T19:52:58.680Z,8.74
2023-01-04T19:55:29.741Z,8.75
2023-01-04T19:58:00.279Z,8.72
2023-01-04T20:00:30.343Z,8.87
2023-01-04T20:03:00.739Z,8.91
2023-01-04T20:05:30.920Z,8.86
2023-01-04T20:08:01.010Z,8.80
2023-01-04T20:10:31.019Z,8.95
2023-01-04T20:13:01.111Z,8.92
2023-01-04T20:15:31.187Z,8.97
2023-01-04T20:18:01.280Z,8.85
2023-01-04T20:20:31.384Z,8.87
2023-01-04T20:23:01.467Z,9.00
2023-01-04T20:25:31.644Z,8.89
2023-01-04T20:27:59.969Z,8.89
2023-01-04T20:30:28.362Z,8.92
2023-01-04T20:32:56.749Z,8.89
2023-01-04T20:35:25.292Z,8.83
2023-01-04T20:37:59.607Z,8.81
2023-01-04T20:40:29.655Z,8.71
2023-01-04T20:43:18.500Z,8.83
2023-01-04T20:45:49.645Z,8.75
2023-01-04T20:48:19.829Z,8.69
2023-01-04T20:50:49.823Z,8.70
2023-01-04T20:53:20.304Z,8.67
2023-01-04T20:55:48.411Z,8.58
2023-01-04T20:58:17.643Z,8.68
2023-01-04T21:00:47.731Z,8.63
2023-01-04T21:03:16.934Z,8.66
2023-01-04T21:05:45.547Z,8.62
2023-01-04T21:08:13.888Z,8.70
2023-01-04T21:10:44.073Z,8.61
2023-01-04T21:13:14.122Z,8.64
2023-01-04T21:15:44.433Z,8.57
2023-01-04T21:18:14.664Z,8.61
2023-01-04T21:20:45.708Z,8.61
2023-01-04T21:23:22.627Z,8.64
2023-01-04T21:25:53.298Z,8.73
2023-01-04T21:28:23.379Z,8.84
2023-01-04T21:30:53.434Z,8.76
2023-01-04T21:33:24.989Z,8.94
2023-01-04T21:35:55.049Z,8.88
2023-01-04T21:38:25.097Z,8.89
2023-01-04T21:40:53.587Z,8.81
2023-01-04T21:43:21.918Z,8.76
2023-01-04T21:45:50.362Z,8.82
2023-01-04T21:48:18.794Z,8.98
2023-01-04T21:50:47.194Z,8.84
2023-01-04T21:53:15.589Z,8.87
2023-01-04T21:55:44.024Z,8.77
2023-01-04T21:58:12.557Z,8.77
2023-01-04T22:00:40.871Z,8.71
2023-01-04T22:03:11.002Z,8.60
2023-01-04T22:05:40.680Z,8.47
2023-01-04T22:08:09.253Z,8.58
2023-01-04T22:10:37.631Z,8.47
2023-01-04T22:13:06.329Z,8.32
2023-01-04T22:15:41.446Z,8.38
2023-01-04T22:18:11.522Z,8.28
2023-01-04T22:20:41.560Z,8.27
2023-01-04T22:23:12.651Z,8.20
2023-01-04T22:25:42.743Z,8.25
2023-01-04T22:28:14.569Z,8.46
2023-01-04T22:30:44.575Z,8.44
2023-01-04T22:33:14.550Z,8.38
2023-01-04T22:35:44.595Z,8.36
2023-01-04T22:38:14.930Z,8.35
2023-01-04T22:40:45.096Z,8.27
2023-01-04T22:43:15.157Z,8.25
2023-01-04T22:45:46.107Z,8.39
2023-01-04T22:48:16.144Z,8.36
2023-01-04T22:50:46.150Z,8.24
2023-01-04T22:53:16.213Z,8.18
2023-01-04T22:56:17.631Z,8.19
2023-01-04T22:58:37.943Z,8.35
2023-01-04T23:01:09.486Z,8.25
2023-01-04T23:03:43.414Z,8.35
2023-01-04T23:06:14.251Z,8.45
2023-01-04T23:08:44.970Z,8.67
2023-01-04T23:11:18.944Z,8.71
2023-01-04T23:13:49.649Z,8.71
2023-01-04T23:16:24.780Z,8.54
2023-01-04T23:18:58.088Z,8.61
2023-01-04T23:21:29.358Z,8.58
2023-01-04T23:24:00.415Z,8.52
2023-01-04T23:26:32.864Z,8.43
2023-01-04T23:29:03.735Z,8.37
2023-01-04T23:31:34.818Z,8.30
2023-01-04T23:34:06.505Z,8.34
2023-01-04T23:36:39.971Z,8.31
2023-01-04T23:39:17.109Z,8.36
2023-01-04T23:41:45.560Z,8.38
2023-01-04T23:44:26.093Z,8.36
2023-01-04T23:47:06.606Z,8.54
2023-01-04T23:49:39.328Z,8.35
2023-01-04T23:52:09.415Z,8.25
2023-01-04T23:54:40.663Z,8.31
2023-01-04T23:57:10.698Z,8.31
2023-01-04T23:59:40.751Z,8.34
